Time;durP1;ratioP1;P1;durP2;ratioP2;P2;SDS_P1;SDS_P2;PMS_P1;PMS_P2;Temp;Humidity;BMP_temperature;BMP_pressure;BME280_temperature;BME280_humidity;BME280_pressure;Samples;Min_cycle;Max_cycle;Signal;HPM_P1;HPM_P2
2024/01/17 00:00:46;;;;;;;2.00;0.93;;;21.60;35.30;;;;;;5118997;28;20066;-36
2024/01/17 00:03:12;;;;;;;1.30;1.00;;;21.60;35.30;;;;;;5111746;28;20122;-37
2024/01/17 00:05:38;;;;;;;1.10;0.90;;;21.60;35.20;;;;;;5112901;28;20032;-34
2024/01/17 00:08:05;;;;;;;0.90;0.80;;;21.60;35.20;;;;;;5113636;27;20059;-37
2024/01/17 00:10:31;;;;;;;1.50;0.90;;;21.70;35.20;;;;;;5110293;28;20093;-36
2024/01/17 00:12:57;;;;;;;0.80;0.70;;;21.60;35.10;;;;;;5117501;27;20027;-36
2024/01/17 00:15:23;;;;;;;0.88;0.55;;;21.60;35.10;;;;;;5112056;28;20090;-37
2024/01/17 00:17:49;;;;;;;1.08;0.70;;;21.60;35.00;;;;;;5116154;27;20099;-37
2024/01/17 00:20:15;;;;;;;1.10;0.70;;;21.60;35.20;;;;;;5116806;28;20051;-36
2024/01/17 00:22:42;;;;;;;1.23;0.85;;;21.60;35.90;;;;;;5114137;28;20061;-33
2024/01/17 00:25:11;;;;;;;0.65;0.57;;;21.70;35.20;;;;;;5119887;27;20043;-37
2024/01/17 00:27:37;;;;;;;1.55;0.73;;;21.60;34.80;;;;;;5111501;28;20047;-38
2024/01/17 00:30:03;;;;;;;1.65;0.80;;;21.60;35.00;;;;;;5111013;28;20540;-32
2024/01/17 00:32:31;;;;;;;0.98;0.77;;;21.50;35.10;;;;;;5118655;28;20365;-36
2024/01/17 00:34:57;;;;;;;1.05;0.85;;;21.60;35.10;;;;;;5108967;28;20073;-34
2024/01/17 00:37:24;;;;;;;1.52;0.68;;;21.60;35.00;;;;;;5123157;27;20024;-38
2024/01/17 00:39:50;;;;;;;0.90;0.70;;;21.60;34.80;;;;;;5121861;27;20058;-37
2024/01/17 00:42:16;;;;;;;0.73;0.60;;;21.60;34.80;;;;;;5112679;27;20039;-36
2024/01/17 00:44:42;;;;;;;1.05;0.70;;;21.50;35.00;;;;;;5119008;27;20031;-37
2024/01/17 00:47:09;;;;;;;0.90;0.73;;;21.50;34.90;;;;;;5117639;28;20023;-32
2024/01/17 00:49:37;;;;;;;1.00;0.60;;;21.50;34.90;;;;;;5117849;28;20115;-35
2024/01/17 00:52:04;;;;;;;2.60;0.80;;;21.50;34.80;;;;;;5107000;27;20032;-38
2024/01/17 00:54:30;;;;;;;0.98;0.60;;;21.60;34.70;;;;;;5118046;28;20024;-36
2024/01/17 00:56:56;;;;;;;1.48;0.70;;;21.60;34.70;;;;;;5112779;28;20495;-36
2024/01/17 00:59:22;;;;;;;0.52;0.50;;;21.50;34.80;;;;;;5116250;28;20106;-36
2024/01/17 01:01:48;;;;;;;0.65;0.52;;;21.50;34.60;;;;;;5117848;28;20508;-39
2024/01/17 01:04:14;;;;;;;0.80;0.63;;;21.50;34.70;;;;;;5119933;28;20031;-35
2024/01/17 01:06:40;;;;;;;2.28;0.80;;;21.50;34.70;;;;;;5121874;28;20726;-36
2024/01/17 01:09:07;;;;;;;2.80;0.60;;;21.50;34.60;;;;;;5109995;28;20027;-36
2024/01/17 01:11:33;;;;;;;0.57;0.40;;;21.60;34.50;;;;;;5109611;28;20034;-37
2024/01/17 01:14:00;;;;;;;0.73;0.60;;;21.60;34.60;;;;;;5110892;28;20096;-37
2024/01/17 01:16:26;;;;;;;1.55;0.50;;;21.50;34.60;;;;;;5120672;28;20028;-37
2024/01/17 01:18:52;;;;;;;1.55;0.47;;;21.50;34.70;;;;;;5109012;28;20044;-35
2024/01/17 01:21:19;;;;;;;1.15;0.70;;;21.50;34.70;;;;;;5104474;28;20092;-37
2024/01/17 01:23:46;;;;;;;0.95;0.60;;;21.50;34.70;;;;;;5114656;28;20040;-35
2024/01/17 01:26:14;;;;;;;0.70;0.57;;;21.60;34.50;;;;;;5109473;28;20062;-36
2024/01/17 01:28:40;;;;;;;1.15;0.80;;;21.60;34.60;;;;;;5112603;28;20059;-36
2024/01/17 01:31:09;;;;;;;1.17;0.70;;;21.50;34.60;;;;;;5110247;28;20098;-35
2024/01/17 01:33:35;;;;;;;0.90;0.70;;;21.50;34.60;;;;;;5114396;28;20024;-32
2024/01/17 01:36:01;;;;;;;1.30;0.50;;;21.50;34.80;;;;;;5113806;28;20036;-36
2024/01/17 01:38:28;;;;;;;0.88;0.60;;;21.50;34.70;;;;;;5106593;28;20028;-37
2024/01/17 01:40:54;;;;;;;0.80;0.50;;;21.50;34.70;;;;;;5118289;28;20040;-36
2024/01/17 01:43:21;;;;;;;1.00;0.60;;;21.60;34.70;;;;;;5151275;27;20077;-37
2024/01/17 01:46:05;;;;;;;0.80;0.60;;;21.60;34.60;;;;;;5111779;28;20024;-37
2024/01/17 01:48:31;;;;;;;0.73;0.60;;;21.50;34.40;;;;;;5112395;28;20067;-36
2024/01/17 01:50:58;;;;;;;0.90;0.60;;;21.50;34.70;;;;;;5095040;28;20032;-36
2024/01/17 01:53:25;;;;;;;0.90;0.60;;;21.50;34.70;;;;;;5113023;28;20536;-32
2024/01/17 01:55:52;;;;;;;1.25;0.60;;;21.60;34.70;;;;;;5111620;28;20032;-35
2024/01/17 01:58:18;;;;;;;0.90;0.55;;;21.60;34.60;;;;;;5113181;28;20032;-35
2024/01/17 02:00:45;;;;;;;0.57;0.40;;;21.60;34.60;;;;;;5110789;28;20023;-37
2024/01/17 02:03:13;;;;;;;1.95;0.50;;;21.50;34.90;;;;;;5111482;28;20076;-37
2024/01/17 02:05:39;;;;;;;0.93;0.60;;;21.50;35.10;;;;;;5097014;28;20024;-37
2024/01/17 02:08:06;;;;;;;1.02;0.60;;;21.50;35.00;;;;;;5111797;28;20036;-34
2024/01/17 02:10:34;;;;;;;0.70;0.50;;;21.50;34.80;;;;;;5113631;28;20031;-33
2024/01/17 02:13:01;;;;;;;0.88;0.47;;;21.50;34.80;;;;;;5114236;28;20038;-38
2024/01/17 02:15:27;;;;;;;1.05;0.52;;;21.60;34.70;;;;;;5109630;28;20032;-39
2024/01/17 02:17:53;;;;;;;0.60;0.50;;;21.60;34.70;;;;;;5117146;28;20109;-37
2024/01/17 02:20:19;;;;;;;0.70;0.52;;;21.50;34.90;;;;;;5117107;28;20054;-36
2024/01/17 02:22:46;;;;;;;0.77;0.60;;;21.50;34.70;;;;;;5113254;28;20169;-38
2024/01/17 02:25:12;;;;;;;0.60;0.50;;;21.50;34.70;;;;;;5115450;28;20026;-35
2024/01/17 02:27:38;;;;;;;0.68;0.50;;;21.50;34.60;;;;;;5112728;28;20043;-37
2024/01/17 02:30:06;;;;;;;0.90;0.60;;;21.50;34.50;;;;;;5108337;28;20028;-33
2024/01/17 02:32:36;;;;;;;0.50;0.43;;;21.60;34.50;;;;;;5112931;28;20028;-33
2024/01/17 02:35:02;;;;;;;5.65;0.68;;;21.50;34.50;;;;;;5111016;28;20020;-38
2024/01/17 02:37:30;;;;;;;2.55;0.50;;;21.50;34.60;;;;;;5107345;28;20024;-36
2024/01/17 02:39:56;;;;;;;2.20;0.55;;;21.50;34.70;;;;;;5116336;28;20114;-36
2024/01/17 02:42:22;;;;;;;1.27;0.50;;;21.50;34.70;;;;;;5115910;28;20044;-38
2024/01/17 02:44:48;;;;;;;1.27;0.47;;;21.50;34.80;;;;;;5108172;28;20034;-33
2024/01/17 02:47:14;;;;;;;1.77;0.43;;;21.50;34.70;;;;;;5111789;28;20039;-38
2024/01/17 02:49:40;;;;;;;0.32;0.30;;;21.50;34.70;;;;;;5108849;28;20020;-37
2024/01/17 02:52:06;;;;;;;0.55;0.47;;;21.50;34.70;;;;;;5113392;28;20028;-37
2024/01/17 02:54:33;;;;;;;0.77;0.52;;;21.50;34.80;;;;;;5108377;28;20074;-35
2024/01/17 02:56:59;;;;;;;0.80;0.50;;;21.50;34.70;;;;;;5109648;28;20042;-35
2024/01/17 02:59:25;;;;;;;1.15;0.47;;;21.50;34.70;;;;;;5109467;28;20035;-38
2024/01/17 03:01:53;;;;;;;0.60;0.50;;;21.60;34.70;;;;;;5111368;28;20118;-37
2024/01/17 03:04:19;;;;;;;0.38;0.30;;;21.50;34.60;;;;;;5107393;28;20103;-37
2024/01/17 03:06:49;;;;;;;0.50;0.47;;;21.50;34.50;;;;;;5105638;28;20047;-35
2024/01/17 03:09:15;;;;;;;0.50;0.50;;;21.50;34.60;;;;;;5107403;28;20031;-36
2024/01/17 03:11:41;;;;;;;0.70;0.50;;;21.40;34.60;;;;;;5110340;28;20027;-32
2024/01/17 03:14:07;;;;;;;1.15;0.50;;;21.50;34.70;;;;;;5107437;28;20176;-36
2024/01/17 03:16:36;;;;;;;0.40;0.40;;;21.50;34.70;;;;;;5112509;28;20091;-36
2024/01/17 03:19:02;;;;;;;0.88;0.47;;;21.50;34.60;;;;;;5107578;28;20071;-35
2024/01/17 03:21:28;;;;;;;0.60;0.40;;;21.50;34.50;;;;;;5110844;28;20020;-35
2024/01/17 03:23:55;;;;;;;0.70;0.50;;;21.50;34.50;;;;;;5106703;28;20040;-36
2024/01/17 03:26:21;;;;;;;0.38;0.35;;;21.50;34.50;;;;;;5105857;28;20031;-35
2024/01/17 03:28:47;;;;;;;0.63;0.50;;;21.50;34.50;;;;;;5105181;28;20103;-37
2024/01/17 03:31:13;;;;;;;0.50;0.40;;;21.50;34.50;;;;;;5117395;28;20074;-36
2024/01/17 03:33:39;;;;;;;0.43;0.43;;;21.50;34.50;;;;;;5105116;28;20050;-38
2024/01/17 03:36:06;;;;;;;0.50;0.50;;;21.50;34.30;;;;;;5115994;28;20037;-36
2024/01/17 03:38:32;;;;;;;0.60;0.40;;;21.60;34.40;;;;;;5107918;28;20034;-37
2024/01/17 03:41:00;;;;;;;2.58;0.50;;;21.50;34.40;;;;;;5110586;28;20039;-37
2024/01/17 03:43:27;;;;;;;0.45;0.40;;;21.50;34.40;;;;;;5114558;28;20036;-37
2024/01/17 03:45:57;;;;;;;0.30;0.30;;;21.50;34.50;;;;;;5111642;28;20081;-37
2024/01/17 03:48:23;;;;;;;0.65;0.40;;;21.50;34.50;;;;;;5114092;28;20040;-36
2024/01/17 03:50:50;;;;;;;0.90;0.50;;;21.50;34.50;;;;;;5117024;28;20031;-37
2024/01/17 03:53:16;;;;;;;0.80;0.50;;;21.50;34.30;;;;;;5115316;28;20840;-37
2024/01/17 03:55:42;;;;;;;0.70;0.50;;;21.50;34.30;;;;;;5111113;28;20032;-37
2024/01/17 03:58:08;;;;;;;0.60;0.50;;;21.50;34.30;;;;;;5109915;28;20035;-37
2024/01/17 04:00:34;;;;;;;1.55;0.70;;;21.40;34.40;;;;;;5110743;28;20036;-38
2024/01/17 04:03:01;;;;;;;0.50;0.50;;;21.50;34.30;;;;;;5112065;28;20141;-36
2024/01/17 04:05:27;;;;;;;0.50;0.40;;;21.50;34.50;;;;;;5112242;27;20743;-36
2024/01/17 04:07:53;;;;;;;0.57;0.40;;;21.50;34.50;;;;;;5108590;28;20032;-35
2024/01/17 04:10:19;;;;;;;0.95;0.50;;;21.60;34.40;;;;;;5110801;28;20522;-38
2024/01/17 04:12:45;;;;;;;2.43;0.40;;;21.50;34.30;;;;;;5111856;28;20027;-37
2024/01/17 04:15:12;;;;;;;0.88;0.57;;;21.50;34.50;;;;;;5111101;28;20036;-36
2024/01/17 04:17:38;;;;;;;0.70;0.50;;;21.50;34.30;;;;;;5113623;28;20035;-37
2024/01/17 04:20:05;;;;;;;0.40;0.40;;;21.50;34.30;;;;;;5115123;28;20087;-38
2024/01/17 04:22:32;;;;;;;0.40;0.40;;;21.50;34.50;;;;;;5116785;27;20070;-37
2024/01/17 04:24:58;;;;;;;0.57;0.40;;;21.50;34.30;;;;;;5116812;28;20087;-37
2024/01/17 04:27:24;;;;;;;0.70;0.40;;;21.60;34.30;;;;;;5120391;28;20043;-37
2024/01/17 04:29:50;;;;;;;0.77;0.40;;;21.50;34.20;;;;;;5123052;28;20042;-35
2024/01/17 04:32:16;;;;;;;0.60;0.40;;;21.50;34.30;;;;;;5119017;28;20086;-37
2024/01/17 04:34:43;;;;;;;0.73;0.52;;;21.40;34.40;;;;;;5121663;28;20061;-38
2024/01/17 04:37:09;;;;;;;1.10;0.60;;;21.50;34.40;;;;;;5116816;28;20035;-38
2024/01/17 04:39:35;;;;;;;0.73;0.43;;;21.50;34.50;;;;;;5117341;28;20031;-36
2024/01/17 04:42:01;;;;;;;0.60;0.50;;;21.50;34.30;;;;;;5119185;27;20089;-35
2024/01/17 04:44:32;;;;;;;0.50;0.47;;;21.50;34.30;;;;;;5119264;28;20032;-35
2024/01/17 04:46:59;;;;;;;1.15;0.60;;;21.50;34.30;;;;;;5119424;28;20567;-36
2024/01/17 04:49:26;;;;;;;0.82;0.60;;;21.50;34.40;;;;;;5118029;28;20034;-36
2024/01/17 04:51:55;;;;;;;0.82;0.70;;;21.50;34.40;;;;;;5110545;28;20028;-38
2024/01/17 04:54:22;;;;;;;1.88;0.50;;;21.50;34.30;;;;;;5119584;28;20030;-40
2024/01/17 04:56:49;;;;;;;0.98;0.60;;;21.50;34.30;;;;;;5117913;28;20023;-37
2024/01/17 04:59:15;;;;;;;0.93;0.70;;;21.50;34.20;;;;;;5116315;28;20039;-36
2024/01/17 05:01:41;;;;;;;0.60;0.57;;;21.50;34.20;;;;;;5116696;28;20051;-37
2024/01/17 05:04:08;;;;;;;0.93;0.50;;;21.50;34.30;;;;;;5117592;28;21519;-38
2024/01/17 05:06:34;;;;;;;1.10;0.80;;;21.40;34.30;;;;;;5121012;28;20059;-38
2024/01/17 05:09:03;;;;;;;0.60;0.50;;;21.50;34.40;;;;;;5121741;28;20091;-38
2024/01/17 05:11:29;;;;;;;0.80;0.60;;;21.50;34.40;;;;;;5119602;28;20496;-37
2024/01/17 05:13:55;;;;;;;0.80;0.68;;;21.50;34.30;;;;;;5120029;28;20066;-38
2024/01/17 05:16:22;;;;;;;2.47;0.80;;;21.60;34.40;;;;;;5113218;28;20032;-41
2024/01/17 05:18:48;;;;;;;2.43;0.67;;;21.50;34.40;;;;;;5121531;28;20031;-36
2024/01/17 05:21:14;;;;;;;0.77;0.70;;;21.50;34.90;;;;;;5116027;28;20276;-38
2024/01/17 05:23:40;;;;;;;0.75;0.45;;;21.50;34.80;;;;;;5115168;28;21501;-38
2024/01/17 05:26:06;;;;;;;0.60;0.60;;;21.50;34.60;;;;;;5113988;28;20035;-38
2024/01/17 05:28:33;;;;;;;1.08;0.60;;;21.50;34.60;;;;;;5113201;28;20085;-36
2024/01/17 05:30:59;;;;;;;0.93;0.73;;;21.50;34.50;;;;;;5114261;28;20496;-35
2024/01/17 05:33:25;;;;;;;0.80;0.60;;;21.50;34.50;;;;;;5113779;28;20039;-38
2024/01/17 05:35:51;;;;;;;1.67;0.70;;;21.50;34.50;;;;;;5113875;28;20023;-37
2024/01/17 05:38:17;;;;;;;1.15;0.82;;;21.50;34.50;;;;;;5112011;28;20058;-38
2024/01/17 05:40:43;;;;;;;0.95;0.68;;;21.50;34.70;;;;;;5115098;28;20050;-37
2024/01/17 05:43:10;;;;;;;0.90;0.70;;;21.50;34.60;;;;;;5115096;28;20488;-37
2024/01/17 05:45:36;;;;;;;1.27;0.80;;;21.50;34.60;;;;;;5114582;28;20573;-35
2024/01/17 05:48:02;;;;;;;0.90;0.80;;;21.60;35.00;;;;;;5113764;27;20046;-36
2024/01/17 05:50:29;;;;;;;1.30;0.90;;;21.60;34.40;;;;;;5115121;28;20028;-36
2024/01/17 05:52:55;;;;;;;1.05;0.85;;;21.50;34.50;;;;;;5111296;28;20032;-38
2024/01/17 05:55:21;;;;;;;1.50;0.80;;;21.50;34.60;;;;;;5120188;28;20026;-39
2024/01/17 05:57:47;;;;;;;2.50;1.00;;;21.50;34.60;;;;;;5115607;28;20036;-36
2024/01/17 06:00:14;;;;;;;1.00;0.77;;;21.50;34.60;;;;;;5118278;28;20051;-37
2024/01/17 06:02:40;;;;;;;0.80;0.77;;;21.50;34.70;;;;;;5110910;28;20063;-35
2024/01/17 06:05:10;;;;;;;1.30;1.00;;;21.60;34.60;;;;;;5117775;28;20035;-37
2024/01/17 06:07:44;;;;;;;1.10;0.80;;;21.50;34.50;;;;;;5117585;28;20385;-35
2024/01/17 06:10:13;;;;;;;1.00;0.90;;;21.50;34.60;;;;;;5118477;28;20079;-36
2024/01/17 06:12:42;;;;;;;2.08;1.00;;;21.50;34.60;;;;;;5119317;28;20034;-38
2024/01/17 06:15:09;;;;;;;1.30;0.90;;;21.50;34.70;;;;;;5118712;28;20035;-38
2024/01/17 06:17:36;;;;;;;1.30;0.80;;;21.50;34.70;;;;;;5119898;28;20051;-36
2024/01/17 06:20:02;;;;;;;1.30;0.90;;;21.50;34.60;;;;;;5118180;28;20032;-37
2024/01/17 06:22:28;;;;;;;1.60;1.05;;;21.60;34.60;;;;;;5117635;28;20034;-38
2024/01/17 06:24:54;;;;;;;1.55;0.93;;;21.50;34.60;;;;;;5116119;28;20122;-37
2024/01/17 06:27:20;;;;;;;1.65;1.17;;;21.50;34.60;;;;;;5119101;28;21329;-36
2024/01/17 06:29:46;;;;;;;3.47;1.08;;;21.50;35.00;;;;;;5120385;28;20032;-32
2024/01/17 06:32:13;;;;;;;1.38;1.00;;;21.50;34.70;;;;;;5114101;28;20020;-37
2024/01/17 06:34:39;;;;;;;1.42;1.00;;;21.50;34.60;;;;;;5113708;28;20031;-37
2024/01/17 06:37:06;;;;;;;1.30;1.00;;;21.50;35.20;;;;;;5116350;28;20018;-37
2024/01/17 06:39:52;;;;;;;1.40;0.93;;;21.50;34.60;;;;;;5075330;28;20285;-34
2024/01/17 06:42:18;;;;;;;1.35;1.00;;;21.50;34.70;;;;;;5070783;28;20044;-37
2024/01/17 06:44:45;;;;;;;1.58;1.20;;;21.40;34.80;;;;;;5074854;28;20116;-36
2024/01/17 06:47:11;;;;;;;1.45;1.13;;;21.40;34.70;;;;;;5075756;28;20025;-38
2024/01/17 06:49:39;;;;;;;1.38;1.02;;;21.50;34.70;;;;;;5075629;28;20040;-37
2024/01/17 06:52:06;;;;;;;1.40;1.00;;;21.50;34.70;;;;;;5075568;28;20032;-36
2024/01/17 06:54:32;;;;;;;1.30;0.90;;;21.50;34.60;;;;;;5074197;28;20032;-36
2024/01/17 06:59:42;;;;;;;1.40;0.98;;;21.50;34.60;;;;;;5074935;28;20046;-38
2024/01/17 07:02:08;;;;;;;1.40;1.00;;;21.40;34.40;;;;;;5074208;28;20100;-37
2024/01/17 07:04:35;;;;;;;1.98;1.10;;;21.40;34.60;;;;;;5075028;28;20083;-38
2024/01/17 07:07:01;;;;;;;1.52;0.93;;;21.50;34.60;;;;;;5075413;28;20020;-38
2024/01/17 07:09:27;;;;;;;2.30;1.50;;;21.50;34.50;;;;;;5073585;28;20131;-35
2024/01/17 07:11:53;;;;;;;1.90;1.15;;;21.50;34.60;;;;;;5073666;28;20048;-34
2024/01/17 07:14:19;;;;;;;1.38;1.08;;;21.50;34.50;;;;;;5073613;28;20055;-34
2024/01/17 07:16:46;;;;;;;1.52;1.15;;;21.40;34.40;;;;;;5090611;28;20039;-32
2024/01/17 07:19:12;;;;;;;1.20;1.10;;;21.40;34.40;;;;;;5115856;28;20909;-35
2024/01/17 07:21:42;;;;;;;1.77;1.10;;;21.40;35.10;;;;;;5116431;28;20401;-36
2024/01/17 07:24:10;;;;;;;1.23;0.90;;;21.50;34.50;;;;;;5117590;28;20057;-35
2024/01/17 07:26:37;;;;;;;1.63;1.10;;;21.50;34.50;;;;;;5114847;28;20059;-37
2024/01/17 07:29:03;;;;;;;1.67;1.17;;;21.50;34.40;;;;;;5115428;28;20091;-38
2024/01/17 07:31:29;;;;;;;1.50;1.02;;;21.40;34.60;;;;;;5115535;27;20047;-35
2024/01/17 07:33:55;;;;;;;2.28;1.02;;;21.40;34.50;;;;;;5114502;28;20034;-34
2024/01/17 07:36:22;;;;;;;2.30;0.90;;;21.40;34.60;;;;;;5114724;28;20108;-37
2024/01/17 07:38:48;;;;;;;3.00;1.17;;;21.40;34.60;;;;;;5116283;28;20031;-37
2024/01/17 07:41:14;;;;;;;1.27;1.00;;;21.50;34.70;;;;;;5115547;28;20027;-37
2024/01/17 07:43:40;;;;;;;1.77;1.10;;;21.50;34.60;;;;;;5116661;28;20043;-36
2024/01/17 07:46:06;;;;;;;1.70;0.90;;;21.50;34.50;;;;;;5114466;28;20035;-36
2024/01/17 07:48:33;;;;;;;1.20;1.02;;;21.40;34.60;;;;;;5115662;28;20499;-37
2024/01/17 07:50:59;;;;;;;1.80;1.13;;;21.40;34.60;;;;;;5114468;28;20720;-35
2024/01/17 07:53:26;;;;;;;1.73;0.85;;;21.40;34.70;;;;;;5116045;28;20059;-35
2024/01/17 07:55:53;;;;;;;;;;;21.40;34.60;;;;;;5121193;28;20051;-35
2024/01/17 07:58:20;;;;;;;1.73;1.13;;;21.40;34.60;;;;;;5122044;28;19961;-37
2024/01/17 08:00:47;;;;;;;2.08;1.08;;;21.50;34.60;;;;;;5118823;28;20088;-37
2024/01/17 08:03:13;;;;;;;1.13;1.00;;;21.50;34.60;;;;;;5118494;28;20095;-36
2024/01/17 08:05:40;;;;;;;1.00;0.82;;;21.40;34.90;;;;;;5120564;28;20109;-35
2024/01/17 08:08:06;;;;;;;1.27;0.90;;;21.40;35.10;;;;;;5122601;27;20043;-36
2024/01/17 08:10:32;;;;;;;1.35;1.00;;;21.40;35.10;;;;;;5122133;28;20028;-38
2024/01/17 08:12:58;;;;;;;1.25;1.00;;;21.40;34.80;;;;;;5121282;28;20024;-35
2024/01/17 08:15:24;;;;;;;1.70;1.08;;;21.50;34.80;;;;;;5121295;28;20024;-37
2024/01/17 08:17:51;;;;;;;1.50;1.10;;;21.50;34.70;;;;;;5117300;28;20038;-33
2024/01/17 08:20:17;;;;;;;1.40;1.00;;;21.50;34.60;;;;;;5115697;28;20059;-35
2024/01/17 08:22:43;;;;;;;1.50;0.90;;;21.40;34.60;;;;;;5121687;28;20035;-37
2024/01/17 08:25:10;;;;;;;1.35;1.00;;;21.40;34.70;;;;;;5121548;28;20043;-38
2024/01/17 08:27:36;;;;;;;0.98;0.80;;;21.40;34.80;;;;;;5122908;28;20052;-38
2024/01/17 08:30:07;;;;;;;1.37;1.10;;;21.40;34.70;;;;;;5119369;28;20035;-38
2024/01/17 08:32:33;;;;;;;1.52;1.00;;;21.50;34.70;;;;;;5118311;28;20030;-37
2024/01/17 08:34:59;;;;;;;1.42;0.90;;;21.50;34.60;;;;;;5116976;28;20023;-37
2024/01/17 08:37:26;;;;;;;1.45;1.00;;;21.50;34.40;;;;;;5119139;28;20049;-37
2024/01/17 08:39:52;;;;;;;1.23;0.90;;;21.40;34.50;;;;;;5120386;28;20062;-35
2024/01/17 08:42:18;;;;;;;1.63;0.98;;;21.40;34.70;;;;;;5122008;28;20032;-38
2024/01/17 08:44:44;;;;;;;1.17;0.90;;;21.40;34.70;;;;;;5121346;28;20035;-37
2024/01/17 08:47:10;;;;;;;1.20;0.98;;;21.40;34.70;;;;;;5117185;28;20590;-37
2024/01/17 08:49:40;;;;;;;1.15;0.90;;;21.50;34.60;;;;;;5114455;28;20035;-37
2024/01/17 08:52:06;;;;;;;1.10;0.90;;;21.50;34.50;;;;;;5115464;28;20055;-37
2024/01/17 08:54:32;;;;;;;1.03;0.77;;;21.40;34.40;;;;;;5115534;28;20027;-38
2024/01/17 08:56:58;;;;;;;1.40;1.10;;;21.40;34.60;;;;;;5113113;28;20024;-35
2024/01/17 08:59:24;;;;;;;1.30;0.90;;;21.40;34.70;;;;;;5113103;28;20035;-38
2024/01/17 09:01:52;;;;;;;1.23;0.90;;;21.40;34.90;;;;;;5115882;28;20423;-38
2024/01/17 09:04:19;;;;;;;0.98;0.85;;;21.40;34.70;;;;;;5115092;28;20038;-38
2024/01/17 09:06:45;;;;;;;1.05;0.95;;;21.50;34.80;;;;;;5113925;28;20030;-37
2024/01/17 09:09:12;;;;;;;0.90;0.80;;;21.50;34.70;;;;;;5115690;28;20051;-35
2024/01/17 09:11:39;;;;;;;1.10;0.93;;;21.50;34.50;;;;;;5114639;28;20046;-38
2024/01/17 09:14:06;;;;;;;1.10;0.80;;;21.40;34.60;;;;;;5114565;28;20027;-38
2024/01/17 09:16:33;;;;;;;0.98;0.80;;;21.40;34.70;;;;;;5116005;28;20031;-38
2024/01/17 09:18:59;;;;;;;;;;;21.40;34.80;;;;;;5120921;28;20090;-38
2024/01/17 09:21:25;;;;;;;1.40;0.90;;;21.40;34.70;;;;;;5117141;28;19907;-37
2024/01/17 09:23:51;;;;;;;1.80;1.00;;;21.40;34.70;;;;;;5113568;28;20058;-36
2024/01/17 09:26:18;;;;;;;1.00;0.88;;;21.50;34.60;;;;;;5112000;28;20028;-39
2024/01/17 09:28:44;;;;;;;1.27;1.00;;;21.40;34.60;;;;;;5113951;28;20059;-38
2024/01/17 09:31:11;;;;;;;1.27;0.90;;;21.30;34.70;;;;;;5111996;28;20020;-36
2024/01/17 09:33:37;;;;;;;1.92;0.90;;;21.30;34.70;;;;;;5113272;28;20039;-37
2024/01/17 09:36:05;;;;;;;1.40;0.90;;;21.30;34.60;;;;;;5114646;28;20061;-32
2024/01/17 09:38:31;;;;;;;1.05;0.70;;;21.40;34.70;;;;;;5113743;28;20496;-38
2024/01/17 09:40:57;;;;;;;1.23;1.00;;;21.40;34.60;;;;;;5106969;28;20100;-36
2024/01/17 09:43:24;;;;;;;1.00;0.68;;;21.50;34.70;;;;;;5121742;28;20077;-35
2024/01/17 09:45:50;;;;;;;1.23;0.82;;;21.40;34.50;;;;;;5115449;28;20038;-35
2024/01/17 09:48:18;;;;;;;1.17;0.90;;;21.40;34.60;;;;;;5115184;28;20039;-35
2024/01/17 09:50:44;;;;;;;1.58;1.00;;;21.30;34.60;;;;;;5109901;28;20061;-38
2024/01/17 09:53:13;;;;;;;1.05;0.95;;;21.30;34.60;;;;;;5124924;27;20061;-35
2024/01/17 09:55:40;;;;;;;0.90;0.80;;;21.40;34.60;;;;;;5122905;27;20039;-37
2024/01/17 09:58:06;;;;;;;1.23;0.98;;;21.40;34.50;;;;;;5113872;28;20020;-38
2024/01/17 10:00:33;;;;;;;0.90;0.70;;;21.50;34.40;;;;;;5108820;28;20042;-36
2024/01/17 10:02:59;;;;;;;1.20;0.90;;;21.40;34.30;;;;;;5110481;28;20095;-37
2024/01/17 10:05:26;;;;;;;1.30;0.85;;;21.30;34.40;;;;;;5111103;28;20106;-36
2024/01/17 10:07:54;;;;;;;1.15;0.80;;;21.30;34.50;;;;;;5120117;28;20050;-37
2024/01/17 10:10:21;;;;;;;1.45;0.73;;;21.30;34.50;;;;;;5113613;28;20032;-37
2024/01/17 10:12:47;;;;;;;0.80;0.80;;;21.40;34.60;;;;;;5107464;28;20036;-38
2024/01/17 10:15:16;;;;;;;1.67;0.93;;;21.40;34.60;;;;;;5107616;28;20051;-38
2024/01/17 10:17:43;;;;;;;1.58;0.80;;;21.40;34.60;;;;;;5116334;28;20031;-37
2024/01/17 10:20:09;;;;;;;1.20;0.90;;;21.40;34.60;;;;;;5112293;28;20042;-35
2024/01/17 10:22:35;;;;;;;1.17;1.00;;;21.30;34.60;;;;;;5112147;27;20056;-39
2024/01/17 10:25:02;;;;;;;0.73;0.60;;;21.30;34.60;;;;;;5110939;28;20820;-38
2024/01/17 10:27:29;;;;;;;0.70;0.70;;;21.30;34.60;;;;;;5112511;28;20052;-39
2024/01/17 10:29:55;;;;;;;0.80;0.77;;;21.40;34.60;;;;;;5112329;28;20039;-36
2024/01/17 10:32:21;;;;;;;0.90;0.75;;;21.40;34.50;;;;;;5112147;28;20031;-39
2024/01/17 10:34:47;;;;;;;1.48;0.98;;;21.40;34.40;;;;;;5111880;28;20028;-37
2024/01/17 10:37:14;;;;;;;1.52;0.90;;;21.40;35.10;;;;;;5113007;27;21264;-36
2024/01/17 10:39:40;;;;;;;0.98;0.80;;;21.30;34.60;;;;;;5110163;28;20036;-37
2024/01/17 10:42:07;;;;;;;1.25;0.88;;;21.30;34.60;;;;;;5109468;28;20039;-37
2024/01/17 10:44:33;;;;;;;;;;;21.30;34.50;;;;;;5108644;28;20896;-36
2024/01/17 10:47:00;;;;;;;2.20;0.73;;;21.40;34.50;;;;;;5110148;28;19907;-38
2024/01/17 10:49:26;;;;;;;0.80;0.70;;;21.40;34.40;;;;;;5112854;28;20040;-37
2024/01/17 10:52:08;;;;;;;0.90;0.60;;;21.50;34.50;;;;;;5111020;28;20027;-35
2024/01/17 10:54:46;;;;;;;1.27;0.70;;;21.40;34.40;;;;;;5108406;28;20777;-37
2024/01/17 10:57:14;;;;;;;0.90;0.70;;;21.30;34.50;;;;;;5111845;28;20028;-38
2024/01/17 10:59:47;;;;;;;1.00;0.68;;;21.30;34.50;;;;;;5112382;28;20035;-37
2024/01/17 11:02:21;;;;;;;1.13;0.90;;;21.30;34.50;;;;;;5115229;28;20051;-38
2024/01/17 11:04:52;;;;;;;1.08;0.88;;;21.40;34.50;;;;;;5116431;28;20031;-39
2024/01/17 11:07:18;;;;;;;0.93;0.82;;;21.40;34.30;;;;;;5116833;28;20054;-37
2024/01/17 11:09:45;;;;;;;1.10;0.80;;;21.40;34.40;;;;;;5118512;28;20061;-37
2024/01/17 11:12:11;;;;;;;1.48;0.90;;;21.40;34.40;;;;;;5110750;28;20039;-39
2024/01/17 11:14:38;;;;;;;1.75;0.90;;;21.30;34.30;;;;;;5112307;28;20381;-38
2024/01/17 11:17:24;;;;;;;1.55;0.85;;;21.30;34.40;;;;;;5118101;27;20027;-35
2024/01/17 11:19:50;;;;;;;1.00;0.90;;;21.30;34.40;;;;;;5080444;28;20040;-35
2024/01/17 11:22:16;;;;;;;0.82;0.73;;;21.30;34.40;;;;;;5081741;28;20516;-37
2024/01/17 11:25:02;;;;;;;2.03;0.52;;;21.40;34.30;;;;;;5049121;28;20051;-38
2024/01/17 11:27:35;;;;;;;2.97;0.93;;;21.40;34.40;;;;;;5077588;28;20792;-38
2024/01/17 11:30:17;;;;;;;0.88;0.75;;;21.30;34.30;;;;;;5056879;28;20608;-37
2024/01/17 11:32:50;;;;;;;2.60;0.70;;;21.30;34.50;;;;;;5082789;28;20045;-38
2024/01/17 11:35:48;;;;;;;3.75;0.80;;;21.30;34.30;;;;;;5079064;28;20028;-36
2024/01/17 11:38:29;;;;;;;1.03;0.80;;;21.30;34.50;;;;;;5079646;28;20049;-38
2024/01/17 11:41:09;;;;;;;2.58;0.80;;;21.30;34.60;;;;;;5076176;28;20315;-34
2024/01/17 11:43:41;;;;;;;1.88;0.98;;;21.30;34.50;;;;;;5078733;28;20128;-35
2024/01/17 11:46:09;;;;;;;2.00;0.82;;;21.30;34.50;;;;;;5082180;28;20029;-37
2024/01/17 11:48:36;;;;;;;1.23;0.77;;;21.20;34.50;;;;;;5082151;28;20051;-36
2024/01/17 11:51:12;;;;;;;;;;;21.20;34.40;;;;;;5081965;28;20040;-35
2024/01/17 11:53:39;;;;;;;1.73;0.88;;;21.20;34.30;;;;;;5081633;28;19963;-38
2024/01/17 11:56:05;;;;;;;1.05;0.70;;;21.30;34.30;;;;;;5060736;28;20041;-36
2024/01/17 11:58:44;;;;;;;0.60;0.60;;;21.40;34.20;;;;;;5116518;28;20571;-38
2024/01/17 12:01:26;;;;;;;1.23;0.80;;;21.40;34.20;;;;;;5114000;28;20028;-35
2024/01/17 12:03:53;;;;;;;1.00;0.80;;;21.30;34.20;;;;;;5116969;28;20036;-38
2024/01/17 12:06:22;;;;;;;1.48;1.00;;;21.30;34.20;;;;;;5113674;28;20024;-37
2024/01/17 12:08:56;;;;;;;1.02;0.90;;;21.20;34.20;;;;;;5120093;28;20472;-35
2024/01/17 12:11:23;;;;;;;1.40;0.93;;;21.30;34.30;;;;;;5117806;28;20019;-34
2024/01/17 12:13:53;;;;;;;1.40;0.90;;;21.30;34.20;;;;;;5116613;28;20046;-38
2024/01/17 12:16:21;;;;;;;1.20;0.70;;;21.40;34.20;;;;;;5117012;28;20031;-37
2024/01/17 12:18:55;;;;;;;1.08;0.90;;;21.30;34.10;;;;;;5115511;28;20043;-34
2024/01/17 12:21:21;;;;;;;1.58;0.80;;;21.30;34.20;;;;;;5115262;28;20047;-36
2024/01/17 12:23:48;;;;;;;1.20;0.95;;;21.20;34.10;;;;;;5116773;27;20047;-36
2024/01/17 12:26:14;;;;;;;0.93;0.70;;;21.20;34.10;;;;;;5114409;27;20135;-41
2024/01/17 12:28:40;;;;;;;1.02;0.70;;;21.20;34.10;;;;;;5116964;28;20044;-38
2024/01/17 12:31:06;;;;;;;0.85;0.73;;;21.30;34.20;;;;;;5114368;28;20028;-34
2024/01/17 12:33:36;;;;;;;1.00;0.63;;;21.30;34.00;;;;;;5113678;28;20046;-36
2024/01/17 12:36:04;;;;;;;1.17;0.80;;;21.30;34.10;;;;;;5114578;28;20057;-41
2024/01/17 12:38:34;;;;;;;0.98;0.80;;;21.20;34.70;;;;;;5113674;28;20122;-37
2024/01/17 12:41:01;;;;;;;1.00;0.82;;;21.20;34.20;;;;;;5115148;28;20050;-38
2024/01/17 12:43:33;;;;;;;0.95;0.70;;;21.20;34.20;;;;;;5116524;28;20047;-36
2024/01/17 12:45:59;;;;;;;1.38;0.80;;;21.30;34.20;;;;;;5114238;28;20032;-34
2024/01/17 12:48:26;;;;;;;0.60;0.45;;;21.30;34.10;;;;;;5116651;28;20024;-36
2024/01/17 12:50:58;;;;;;;1.20;0.60;;;21.40;34.10;;;;;;5113003;28;20024;-37